Time;durP1;ratioP1;P1;durP2;ratioP2;P2;SDS_P1;SDS_P2;PMS_P1;PMS_P2;Temp;Humidity;BMP_temperature;BMP_pressure;BME280_temperature;BME280_humidity;BME280_pressure;Samples;Min_cycle;Max_cycle;Signal;HPM_P1;HPM_P2
2023/10/13 00:01:51;;;;;;;8.00;2.53;;;11.90;99.90;;;;;;5036521;28;20227;-84
2023/10/13 00:04:22;;;;;;;7.80;2.53;;;11.90;99.90;;;;;;5030515;28;20234;-84
2023/10/13 00:06:49;;;;;;;7.43;2.63;;;11.90;99.90;;;;;;5041967;28;20228;-84
2023/10/13 00:09:16;;;;;;;5.43;2.20;;;11.90;99.90;;;;;;5040571;28;20230;-83
2023/10/13 00:11:46;;;;;;;10.37;2.73;;;11.90;99.90;;;;;;5048255;28;20667;-83
2023/10/13 00:14:15;;;;;;;6.50;2.30;;;11.90;99.90;;;;;;5037820;28;20279;-84
2023/10/13 00:17:00;;;;;;;9.60;2.63;;;11.90;99.90;;;;;;5037697;28;20217;-84
2023/10/13 00:19:37;;;;;;;7.70;2.87;;;11.90;99.90;;;;;;5032784;28;20222;-84
2023/10/13 00:22:10;;;;;;;6.50;2.83;;;11.90;99.90;;;;;;5030950;28;20869;-82
2023/10/13 00:24:46;;;;;;;8.60;2.80;;;11.90;99.90;;;;;;5027667;28;20221;-85
2023/10/13 00:30:15;;;;;;;8.20;3.03;;;11.90;99.90;;;;;;5041531;28;20303;-83
2023/10/13 00:32:47;;;;;;;6.47;2.77;;;11.90;99.90;;;;;;5038353;28;20632;-84
2023/10/13 00:35:24;;;;;;;8.00;3.17;;;11.90;99.90;;;;;;5037303;28;20221;-83
2023/10/13 00:37:53;;;;;;;10.30;3.40;;;11.90;99.90;;;;;;5039125;28;20232;-83
2023/10/13 00:40:42;;;;;;;7.47;3.47;;;11.90;99.90;;;;;;5041845;28;20847;-84
2023/10/13 00:45:57;;;;;;;6.83;3.40;;;11.90;99.90;;;;;;5023239;28;20231;-82
2023/10/13 00:48:28;;;;;;;10.77;3.33;;;11.90;99.90;;;;;;5035503;28;20215;-84
2023/10/13 00:51:02;;;;;;;8.17;3.70;;;11.90;99.90;;;;;;5038027;28;20225;-84
2023/10/13 00:53:29;;;;;;;10.70;3.70;;;11.90;99.90;;;;;;5027400;28;20297;-84
2023/10/13 00:55:57;;;;;;;9.93;3.60;;;11.90;99.90;;;;;;5038421;28;20215;-84
2023/10/13 00:58:25;;;;;;;14.17;4.27;;;11.90;99.90;;;;;;5037924;28;20244;-84
2023/10/13 01:01:00;;;;;;;12.23;3.80;;;11.90;99.90;;;;;;5042826;28;20903;-84
2023/10/13 01:03:26;;;;;;;12.17;4.17;;;11.90;99.90;;;;;;5039351;28;20235;-84
2023/10/13 01:05:56;;;;;;;13.50;4.50;;;11.90;99.90;;;;;;5042197;28;20222;-82
2023/10/13 01:08:37;;;;;;;8.57;4.63;;;11.90;99.90;;;;;;5037440;28;20220;-83
2023/10/13 01:11:06;;;;;;;13.27;5.10;;;12.00;99.90;;;;;;5037968;28;20230;-84
2023/10/13 01:13:36;;;;;;;16.87;4.93;;;12.00;99.90;;;;;;5035933;28;20246;-84
2023/10/13 01:16:02;;;;;;;12.20;5.53;;;12.00;99.90;;;;;;5030275;28;20246;-84
2023/10/13 01:18:29;;;;;;;13.97;5.63;;;12.00;99.90;;;;;;5038934;28;20239;-83
2023/10/13 01:20:58;;;;;;;16.80;6.17;;;12.00;99.90;;;;;;5040612;28;20228;-84
2023/10/13 01:23:28;;;;;;;15.17;6.33;;;12.00;99.90;;;;;;5036729;28;20683;-84
2023/10/13 01:25:56;;;;;;;14.93;6.57;;;12.10;99.90;;;;;;5036894;28;20248;-84
2023/10/13 01:28:23;;;;;;;17.77;7.40;;;12.10;99.90;;;;;;5031153;28;20234;-82
2023/10/13 01:30:50;;;;;;;14.70;7.20;;;12.10;99.90;;;;;;5038649;28;20226;-84
2023/10/13 01:33:25;;;;;;;20.10;8.53;;;12.10;99.90;;;;;;5034075;28;20304;-83
2023/10/13 01:35:53;;;;;;;20.70;7.80;;;12.10;99.90;;;;;;5030836;28;20223;-83
2023/10/13 01:38:19;;;;;;;19.63;7.57;;;12.10;99.90;;;;;;5039506;28;20235;-83
2023/10/13 01:40:51;;;;;;;16.93;8.13;;;12.10;99.90;;;;;;5033046;28;20249;-83
2023/10/13 01:43:18;;;;;;;20.13;8.67;;;12.20;99.90;;;;;;5028214;28;20224;-83
2023/10/13 01:45:49;;;;;;;15.07;7.67;;;12.20;99.90;;;;;;5040088;28;20889;-83
2023/10/13 01:48:16;;;;;;;19.37;8.67;;;12.20;99.90;;;;;;5034842;28;20230;-83
2023/10/13 01:50:47;;;;;;;22.97;9.03;;;12.20;99.90;;;;;;5035583;28;20303;-83
2023/10/13 01:53:17;;;;;;;23.07;9.03;;;12.30;99.90;;;;;;5036984;28;20240;-83
2023/10/13 01:55:44;;;;;;;22.17;9.07;;;12.30;99.90;;;;;;5031332;28;20462;-83
2023/10/13 01:58:14;;;;;;;19.43;9.03;;;12.30;99.90;;;;;;5035634;28;20226;-83
2023/10/13 02:00:43;;;;;;;21.57;9.63;;;12.30;99.90;;;;;;5027399;28;20230;-83
2023/10/13 02:03:15;;;;;;;19.73;9.80;;;12.40;99.90;;;;;;5035021;28;20890;-84
2023/10/13 02:05:46;;;;;;;22.27;10.27;;;12.30;99.90;;;;;;5032968;28;20286;-82
2023/10/13 02:08:17;;;;;;;21.60;9.80;;;12.30;99.90;;;;;;5030596;28;20226;-83
2023/10/13 02:10:46;;;;;;;22.83;10.83;;;12.40;99.90;;;;;;5033292;28;20211;-83
2023/10/13 02:13:17;;;;;;;22.77;10.30;;;12.30;99.90;;;;;;5039505;28;20314;-83
2023/10/13 02:15:45;;;;;;;19.73;10.93;;;12.40;99.90;;;;;;5033392;28;20240;-83
2023/10/13 02:18:20;;;;;;;24.20;10.87;;;12.40;99.90;;;;;;5037015;28;20234;-84
2023/10/13 02:20:54;;;;;;;22.97;11.30;;;12.40;99.90;;;;;;5030632;28;20335;-83
2023/10/13 02:23:21;;;;;;;24.10;11.40;;;12.40;99.90;;;;;;5034828;28;20725;-84
2023/10/13 02:25:48;;;;;;;24.10;11.50;;;12.40;99.90;;;;;;5038715;28;20306;-84
2023/10/13 02:28:21;;;;;;;21.83;11.70;;;12.50;99.90;;;;;;5038828;28;20276;-84
2023/10/13 02:30:50;;;;;;;24.60;11.73;;;12.50;99.90;;;;;;5040380;28;20225;-84
2023/10/13 02:33:21;;;;;;;23.93;11.73;;;12.50;99.90;;;;;;5037784;28;20271;-83
2023/10/13 02:35:54;;;;;;;25.87;11.77;;;12.50;99.90;;;;;;5036626;28;20219;-84
2023/10/13 02:38:31;;;;;;;25.07;11.20;;;12.50;99.90;;;;;;5034752;28;20230;-84
2023/10/13 02:41:05;;;;;;;22.87;11.73;;;12.50;99.90;;;;;;5039335;28;20280;-84
2023/10/13 02:43:33;;;;;;;23.17;11.97;;;12.50;99.90;;;;;;5049738;28;20237;-84
2023/10/13 02:46:01;;;;;;;24.30;12.80;;;12.60;99.90;;;;;;5035731;28;20309;-84
2023/10/13 02:48:30;;;;;;;25.90;12.23;;;12.60;99.90;;;;;;5037098;28;20274;-84
2023/10/13 02:51:02;;;;;;;26.33;11.70;;;12.60;99.90;;;;;;5038179;28;20822;-84
2023/10/13 02:53:28;;;;;;;29.93;12.70;;;12.60;99.90;;;;;;5037556;28;20698;-84
2023/10/13 02:55:59;;;;;;;24.57;12.73;;;12.60;99.90;;;;;;5034431;28;20219;-85
2023/10/13 02:58:37;;;;;;;25.70;12.93;;;12.60;99.90;;;;;;5038358;28;20224;-83
2023/10/13 03:01:16;;;;;;;27.03;13.07;;;12.60;99.90;;;;;;5050781;28;20231;-84
2023/10/13 03:03:50;;;;;;;29.30;13.23;;;12.70;99.90;;;;;;5040071;28;20253;-84
2023/10/13 03:06:17;;;;;;;25.63;12.40;;;12.70;99.90;;;;;;5036524;28;20231;-83
2023/10/13 03:08:48;;;;;;;24.50;11.97;;;12.70;99.90;;;;;;5036930;28;20222;-84
2023/10/13 03:11:20;;;;;;;27.67;12.77;;;12.70;99.90;;;;;;5037413;28;20315;-84
2023/10/13 03:13:50;;;;;;;20.33;12.17;;;12.70;99.90;;;;;;5050584;28;20223;-84
2023/10/13 03:16:19;;;;;;;24.23;12.03;;;12.70;99.90;;;;;;5050110;28;20219;-83
2023/10/13 03:18:55;;;;;;;23.97;12.77;;;12.70;99.90;;;;;;5046058;28;20349;-84
2023/10/13 03:21:29;;;;;;;25.93;12.60;;;12.70;99.90;;;;;;5040226;28;20238;-85
2023/10/13 03:24:03;;;;;;;23.23;11.67;;;12.80;99.90;;;;;;5038536;28;20252;-83
2023/10/13 03:26:36;;;;;;;26.10;12.43;;;12.80;99.90;;;;;;5036495;28;20325;-83
2023/10/13 03:29:04;;;;;;;24.07;12.33;;;12.70;99.90;;;;;;5040702;28;20247;-83
2023/10/13 03:31:36;;;;;;;22.60;12.27;;;12.80;99.90;;;;;;5040345;28;20246;-83
2023/10/13 03:34:05;;;;;;;19.53;12.13;;;12.80;99.90;;;;;;5045816;28;20713;-83
2023/10/13 03:36:56;;;;;;;21.00;11.60;;;12.80;99.90;;;;;;5034048;28;20233;-83
2023/10/13 03:39:28;;;;;;;17.50;10.03;;;12.80;99.90;;;;;;5038317;28;20230;-84
2023/10/13 03:41:56;;;;;;;19.73;10.67;;;12.80;99.90;;;;;;5036897;28;20258;-83
2023/10/13 03:44:27;;;;;;;19.13;10.47;;;12.80;99.90;;;;;;5045043;28;20596;-83
2023/10/13 03:46:56;;;;;;;12.67;9.17;;;12.80;99.90;;;;;;5037294;28;20318;-82
2023/10/13 03:49:25;;;;;;;13.77;9.10;;;12.80;99.90;;;;;;5034451;28;20222;-82
2023/10/13 03:51:54;;;;;;;13.07;8.13;;;12.80;99.90;;;;;;5035161;28;20238;-83
2023/10/13 03:54:21;;;;;;;12.33;7.67;;;12.80;99.90;;;;;;5033911;28;20234;-83
2023/10/13 03:56:52;;;;;;;11.43;7.40;;;12.90;99.90;;;;;;5038158;28;20223;-83
2023/10/13 03:59:19;;;;;;;9.97;7.10;;;12.80;99.90;;;;;;5046187;28;20238;-84
2023/10/13 04:01:46;;;;;;;10.43;7.20;;;12.80;99.90;;;;;;5046588;28;20248;-83
2023/10/13 04:04:29;;;;;;;11.17;7.70;;;12.80;99.90;;;;;;5044740;28;20328;-83
2023/10/13 04:07:13;;;;;;;12.40;7.30;;;12.90;99.90;;;;;;5033332;28;20243;-83
2023/10/13 04:15:23;;;;;;;15.30;8.57;;;12.90;99.90;;;;;;5019553;28;20227;-84
2023/10/13 04:17:53;;;;;;;14.00;9.40;;;12.90;99.90;;;;;;5036069;28;20258;-85
2023/10/13 04:20:38;;;;;;;15.90;10.00;;;13.00;99.90;;;;;;5038478;28;20246;-85
2023/10/13 04:23:18;;;;;;;16.80;10.00;;;13.00;99.90;;;;;;5034967;28;20369;-85
2023/10/13 04:28:37;;;;;;;15.27;10.37;;;13.00;99.90;;;;;;5035092;28;20237;-85
2023/10/13 04:31:24;;;;;;;17.03;10.80;;;13.00;99.90;;;;;;5028863;28;20235;-85
2023/10/13 04:33:56;;;;;;;19.10;11.73;;;13.10;99.90;;;;;;5025170;28;20229;-84
2023/10/13 04:36:45;;;;;;;18.53;12.03;;;13.10;99.90;;;;;;5025701;28;20230;-84
2023/10/13 04:39:14;;;;;;;21.00;12.93;;;13.10;99.90;;;;;;5026600;28;20751;-85
2023/10/13 04:41:42;;;;;;;19.63;12.93;;;13.20;99.90;;;;;;5027794;28;20249;-84
2023/10/13 04:44:48;;;;;;;21.27;12.67;;;13.20;99.90;;;;;;5029711;28;20234;-84
2023/10/13 04:47:17;;;;;;;25.70;13.40;;;13.20;99.90;;;;;;5030718;28;20274;-84
2023/10/13 04:49:51;;;;;;;21.13;13.40;;;13.30;99.90;;;;;;5027768;28;20216;-85
2023/10/13 04:55:16;;;;;;;21.37;13.30;;;13.30;99.90;;;;;;5027664;28;20227;-85
2023/10/13 04:57:47;;;;;;;22.33;14.90;;;13.40;99.90;;;;;;5028872;28;20253;-84
2023/10/13 05:06:10;;;;;;;25.07;15.73;;;13.40;99.90;;;;;;5027028;28;20222;-84
2023/10/13 05:44:37;;;;;;;30.93;19.80;;;13.90;99.90;;;;;;5042723;28;20233;-86
2023/10/13 05:50:28;;;;;;;30.07;20.20;;;13.90;99.90;;;;;;5033012;28;20216;-88
2023/10/13 06:28:41;;;;;;;35.83;24.50;;;14.40;99.90;;;;;;5038783;28;20225;-87
2023/10/13 06:31:21;;;;;;;40.27;25.87;;;14.40;99.90;;;;;;5039721;28;20277;-86
2023/10/13 06:33:48;;;;;;;37.27;25.93;;;14.50;99.90;;;;;;5040051;28;20238;-86
2023/10/13 06:36:17;;;;;;;36.70;25.00;;;14.50;99.90;;;;;;5041411;28;20439;-87
2023/10/13 06:38:44;;;;;;;35.57;25.20;;;14.60;99.90;;;;;;5056813;28;20269;-86
2023/10/13 06:41:19;;;;;;;35.63;25.17;;;14.60;99.90;;;;;;5042897;28;20295;-89
2023/10/13 06:43:59;;;;;;;37.63;26.00;;;14.50;99.90;;;;;;5055921;28;20248;-85
2023/10/13 06:46:28;;;;;;;37.93;25.87;;;14.60;99.90;;;;;;5039461;28;20233;-86
2023/10/13 06:48:59;;;;;;;38.93;26.40;;;14.70;99.90;;;;;;5040171;28;20253;-85
2023/10/13 06:51:30;;;;;;;36.07;26.47;;;14.70;99.90;;;;;;5041129;28;20233;-84
2023/10/13 06:54:00;;;;;;;35.30;27.13;;;14.70;99.90;;;;;;5040601;28;20286;-86
2023/10/13 06:56:28;;;;;;;35.77;26.70;;;14.70;99.90;;;;;;5045309;28;20228;-85
2023/10/13 06:58:59;;;;;;;42.83;26.87;;;14.80;99.90;;;;;;5051436;28;20240;-85
2023/10/13 07:01:28;;;;;;;37.37;28.10;;;14.80;99.90;;;;;;5041187;28;20318;-85
2023/10/13 07:04:00;;;;;;;39.90;27.83;;;14.90;99.90;;;;;;5045267;28;20711;-86
2023/10/13 07:06:28;;;;;;;36.87;27.77;;;14.90;99.90;;;;;;5031844;28;20223;-85
2023/10/13 07:08:56;;;;;;;38.03;27.30;;;14.80;99.90;;;;;;5030568;28;20230;-85
2023/10/13 07:11:33;;;;;;;38.97;28.53;;;14.90;99.90;;;;;;5035086;28;20232;-88
2023/10/13 07:14:09;;;;;;;38.50;27.50;;;15.00;99.90;;;;;;5040110;28;20235;-88
2023/10/13 07:16:58;;;;;;;35.50;26.03;;;14.90;99.90;;;;;;5015108;28;20356;-88
2023/10/13 07:19:53;;;;;;;40.00;28.33;;;15.00;99.90;;;;;;5031530;28;20231;-89
2023/10/13 07:22:20;;;;;;;33.17;26.60;;;15.00;99.90;;;;;;5000027;28;20233;-88
2023/10/13 07:24:49;;;;;;;39.00;27.67;;;15.00;99.90;;;;;;5040664;28;20246;-88
2023/10/13 07:27:22;;;;;;;37.20;28.30;;;15.10;99.90;;;;;;5036956;28;20745;-85
2023/10/13 07:29:55;;;;;;;35.17;26.50;;;15.10;99.90;;;;;;5044845;28;20232;-87
2023/10/13 07:32:27;;;;;;;33.10;25.97;;;15.10;99.90;;;;;;5034007;28;20237;-87
2023/10/13 07:34:57;;;;;;;33.90;25.97;;;15.10;99.90;;;;;;5042771;28;20638;-85
2023/10/13 07:37:28;;;;;;;33.57;26.00;;;15.10;99.90;;;;;;5041718;28;20692;-84
2023/10/13 07:39:57;;;;;;;38.77;24.17;;;15.20;99.90;;;;;;5036329;28;21837;-84
2023/10/13 07:42:30;;;;;;;37.37;24.93;;;15.20;99.90;;;;;;5043318;28;20238;-83
2023/10/13 07:44:58;;;;;;;34.30;24.73;;;15.20;99.90;;;;;;5042988;28;20697;-86
2023/10/13 07:47:28;;;;;;;31.00;23.37;;;15.20;99.90;;;;;;5040778;28;20314;-83
2023/10/13 07:49:56;;;;;;;30.60;23.13;;;15.20;99.90;;;;;;5041995;28;20320;-86
2023/10/13 07:52:36;;;;;;;31.87;23.13;;;15.20;99.90;;;;;;5026534;28;20779;-85
2023/10/13 07:55:11;;;;;;;30.77;23.00;;;15.20;99.90;;;;;;5041799;28;20221;-84
2023/10/13 07:57:52;;;;;;;27.70;21.93;;;15.20;99.90;;;;;;5038192;28;20247;-86
2023/10/13 08:00:29;;;;;;;27.37;21.37;;;15.30;99.90;;;;;;5042131;28;20226;-85
2023/10/13 08:03:19;;;;;;;27.43;21.53;;;15.20;99.90;;;;;;5036502;28;20321;-84
2023/10/13 08:05:58;;;;;;;25.30;21.23;;;15.30;99.90;;;;;;5035108;28;20315;-85
2023/10/13 08:08:34;;;;;;;23.53;19.37;;;15.20;99.90;;;;;;5022329;28;20298;-84
2023/10/13 08:11:11;;;;;;;24.23;19.93;;;15.30;99.90;;;;;;5031518;28;20221;-84
2023/10/13 08:13:38;;;;;;;31.10;20.63;;;15.30;99.90;;;;;;5038663;28;20227;-86
2023/10/13 08:16:08;;;;;;;32.33;21.50;;;15.20;99.90;;;;;;5042575;28;20225;-84
2023/10/13 08:18:41;;;;;;;27.50;18.60;;;15.30;99.90;;;;;;5035724;28;20230;-83
2023/10/13 08:21:16;;;;;;;25.17;18.53;;;15.20;99.90;;;;;;5041547;28;20280;-82
2023/10/13 08:24:06;;;;;;;23.20;17.77;;;15.30;99.90;;;;;;5035156;28;20217;-83
2023/10/13 08:32:36;;;;;;;17.47;14.77;;;15.20;99.90;;;;;;5033682;28;20238;-84
2023/10/13 08:35:22;;;;;;;17.83;14.60;;;15.30;99.90;;;;;;5031223;28;20224;-85
2023/10/13 08:37:59;;;;;;;19.20;15.93;;;15.20;99.90;;;;;;5036352;28;20230;-85
2023/10/13 08:41:09;;;;;;;20.10;15.03;;;15.30;99.90;;;;;;5035398;28;20229;-84
2023/10/13 08:43:42;;;;;;;30.27;14.63;;;15.30;99.90;;;;;;5052586;28;20224;-83
2023/10/13 08:46:24;;;;;;;18.43;13.20;;;15.30;99.90;;;;;;5041887;28;20266;-84
2023/10/13 08:49:04;;;;;;;17.43;14.07;;;15.30;99.90;;;;;;5030083;28;20295;-83
2023/10/13 08:51:44;;;;;;;17.27;13.27;;;15.30;99.90;;;;;;5038674;28;20224;-83
2023/10/13 08:54:19;;;;;;;19.57;14.13;;;15.20;99.90;;;;;;5035712;28;20229;-81
2023/10/13 08:56:54;;;;;;;16.73;12.50;;;15.20;99.90;;;;;;5034560;28;20229;-83
2023/10/13 08:59:33;;;;;;;14.13;12.40;;;15.20;99.90;;;;;;5036604;28;20237;-84
2023/10/13 09:02:17;;;;;;;13.87;12.23;;;15.20;99.90;;;;;;5037770;28;20221;-85
2023/10/13 09:04:45;;;;;;;14.00;11.53;;;15.20;99.90;;;;;;5036963;28;20824;-85
2023/10/13 09:07:16;;;;;;;12.87;11.50;;;15.20;99.90;;;;;;5040526;28;20233;-86
2023/10/13 09:10:11;;;;;;;13.63;11.87;;;15.20;99.90;;;;;;5022960;28;20240;-85
2023/10/13 09:13:00;;;;;;;13.10;11.13;;;15.20;99.90;;;;;;5036690;28;20233;-87
2023/10/13 09:18:14;;;;;;;10.60;9.40;;;15.20;99.90;;;;;;5035084;28;20223;-84
2023/10/13 09:20:45;;;;;;;11.60;9.87;;;15.20;99.90;;;;;;5038486;28;20229;-84
2023/10/13 09:23:23;;;;;;;11.27;9.30;;;15.20;99.90;;;;;;5038543;28;20229;-84
2023/10/13 09:25:58;;;;;;;10.53;8.47;;;15.20;99.90;;;;;;5038476;28;20830;-85
2023/10/13 09:28:27;;;;;;;10.77;8.27;;;15.20;99.90;;;;;;5035476;28;21612;-84
2023/10/13 09:30:56;;;;;;;9.93;7.57;;;15.20;99.90;;;;;;5039112;28;20231;-85
2023/10/13 09:33:32;;;;;;;8.47;7.60;;;15.30;99.90;;;;;;5026904;28;20631;-86
2023/10/13 09:36:00;;;;;;;9.97;7.57;;;15.30;99.90;;;;;;5050781;28;20798;-84
2023/10/13 09:38:32;;;;;;;7.80;7.03;;;15.40;99.90;;;;;;5041420;28;20213;-83
2023/10/13 09:41:01;;;;;;;10.50;7.87;;;15.40;99.90;;;;;;5041763;28;20230;-83
2023/10/13 09:43:30;;;;;;;9.10;7.30;;;15.40;99.90;;;;;;5035924;28;20225;-83
2023/10/13 09:46:06;;;;;;;8.33;6.10;;;15.50;99.90;;;;;;5031750;28;20219;-84
2023/10/13 09:48:34;;;;;;;8.97;6.37;;;15.50;99.90;;;;;;5039746;28;20232;-86
2023/10/13 09:51:06;;;;;;;9.43;6.53;;;15.60;99.90;;;;;;5041823;28;20258;-85
2023/10/13 09:53:34;;;;;;;6.77;5.80;;;15.60;99.90;;;;;;5041526;28;20237;-83
2023/10/13 09:56:19;;;;;;;8.03;5.70;;;15.60;99.90;;;;;;5031913;28;20222;-83
2023/10/13 09:58:57;;;;;;;6.13;5.53;;;15.70;99.90;;;;;;5034411;28;20276;-83
2023/10/13 10:01:37;;;;;;;7.90;5.43;;;15.70;99.90;;;;;;5041856;28;20442;-84
2023/10/13 10:04:08;;;;;;;7.43;5.57;;;15.80;99.90;;;;;;5039446;28;20805;-83
2023/10/13 10:06:43;;;;;;;8.37;5.87;;;15.80;99.90;;;;;;5055659;28;20276;-82
2023/10/13 10:09:11;;;;;;;7.33;5.77;;;15.80;99.90;;;;;;5040106;28;20316;-83
2023/10/13 10:12:13;;;;;;;11.50;6.33;;;15.80;99.90;;;;;;5037795;28;20313;-82
2023/10/13 10:15:06;;;;;;;8.17;5.60;;;15.80;99.90;;;;;;5042214;28;20829;-83
2023/10/13 10:17:40;;;;;;;9.60;5.30;;;15.80;99.90;;;;;;5046466;28;20314;-82
2023/10/13 10:20:19;;;;;;;8.63;5.80;;;15.80;99.90;;;;;;5025422;28;20227;-82
2023/10/13 10:22:58;;;;;;;8.33;5.87;;;15.80;99.90;;;;;;5041806;28;20226;-84
2023/10/13 10:25:34;;;;;;;9.10;5.30;;;15.90;99.90;;;;;;5045018;28;20620;-83
2023/10/13 10:28:05;;;;;;;9.23;5.60;;;15.90;99.90;;;;;;5041473;28;20234;-83
2023/10/13 10:30:34;;;;;;;7.37;5.70;;;15.90;99.90;;;;;;5043842;28;20305;-82
2023/10/13 10:33:08;;;;;;;11.17;5.60;;;15.90;99.90;;;;;;5042786;28;20234;-83
2023/10/13 10:35:38;;;;;;;9.30;5.63;;;15.90;99.90;;;;;;5044304;28;20238;-84
2023/10/13 10:38:24;;;;;;;8.80;5.97;;;15.90;99.90;;;;;;5044615;28;20747;-83
2023/10/13 10:40:57;;;;;;;9.50;5.10;;;16.00;99.90;;;;;;5038175;28;20234;-84
2023/10/13 10:43:29;;;;;;;8.83;5.53;;;16.00;99.90;;;;;;5034510;28;20827;-84
2023/10/13 10:45:59;;;;;;;9.53;5.83;;;16.10;99.90;;;;;;5040288;28;20223;-84
2023/10/13 10:48:31;;;;;;;9.37;5.77;;;16.10;99.90;;;;;;5042837;28;20231;-84
2023/10/13 10:51:06;;;;;;;9.47;5.50;;;16.20;99.90;;;;;;5043185;28;20312;-84
2023/10/13 10:53:43;;;;;;;7.23;5.37;;;16.20;99.90;;;;;;5040248;28;20227;-83
2023/10/13 10:56:24;;;;;;;9.97;5.83;;;16.30;99.90;;;;;;5044415;28;20751;-83
2023/10/13 10:58:55;;;;;;;10.50;5.47;;;16.40;99.90;;;;;;5035753;28;20243;-83
2023/10/13 11:01:22;;;;;;;8.33;5.53;;;16.40;99.90;;;;;;5044248;28;20228;-83
2023/10/13 11:04:07;;;;;;;7.20;5.63;;;16.50;99.90;;;;;;5043749;28;20290;-83
2023/10/13 11:06:38;;;;;;;11.27;5.97;;;16.60;99.90;;;;;;5043975;28;20228;-83
2023/10/13 11:09:18;;;;;;;9.33;6.23;;;16.60;99.90;;;;;;5037015;28;20236;-82
2023/10/13 11:11:52;;;;;;;9.63;5.60;;;16.70;99.90;;;;;;5037673;28;20232;-83
2023/10/13 11:14:26;;;;;;;9.53;5.10;;;16.80;99.90;;;;;;5039865;28;20228;-83
2023/10/13 11:16:54;;;;;;;8.50;5.37;;;16.90;99.90;;;;;;5039664;28;20224;-84
2023/10/13 11:19:25;;;;;;;7.90;5.47;;;16.90;99.90;;;;;;5042279;28;20226;-83
2023/10/13 11:21:54;;;;;;;9.30;5.60;;;17.00;99.90;;;;;;5042450;28;20242;-83
2023/10/13 11:24:21;;;;;;;7.80;5.60;;;17.10;99.90;;;;;;5034673;28;20228;-84
2023/10/13 11:26:50;;;;;;;10.10;5.60;;;17.20;99.90;;;;;;5042578;28;20228;-83
2023/10/13 11:29:19;;;;;;;9.93;5.40;;;17.30;99.90;;;;;;5035156;28;20636;-83
2023/10/13 11:31:50;;;;;;;12.63;5.93;;;17.30;99.90;;;;;;5027010;28;20224;-84
2023/10/13 11:34:17;;;;;;;8.27;5.00;;;17.40;99.90;;;;;;5036385;28;20228;-85
2023/10/13 11:36:44;;;;;;;7.40;5.00;;;17.40;99.90;;;;;;5040957;28;20232;-85
2023/10/13 11:39:17;;;;;;;7.27;5.27;;;17.50;99.90;;;;;;5036951;28;20315;-86
2023/10/13 11:41:53;;;;;;;7.77;5.47;;;17.60;99.90;;;;;;5040852;28;20235;-86
2023/10/13 11:44:30;;;;;;;9.73;5.63;;;17.60;99.90;;;;;;5039059;28;20657;-86
2023/10/13 11:47:07;;;;;;;8.33;5.53;;;17.60;99.90;;;;;;5040226;28;20224;-86
2023/10/13 11:49:37;;;;;;;8.83;5.03;;;17.70;99.90;;;;;;5034640;28;20588;-85
2023/10/13 11:54:51;;;;;;;6.97;4.57;;;17.90;99.90;;;;;;5040934;28;20281;-86
2023/10/13 11:57:19;;;;;;;11.50;5.73;;;17.90;99.90;;;;;;5043616;28;20221;-85
2023/10/13 11:59:56;;;;;;;8.70;5.23;;;18.00;99.90;;;;;;5045157;28;20247;-85
2023/10/13 12:05:16;;;;;;;9.73;5.13;;;18.10;99.90;;;;;;5036946;28;20644;-86
2023/10/13 12:07:48;;;;;;;10.30;5.00;;;18.20;99.90;;;;;;5040851;28;20255;-85
2023/10/13 12:13:05;;;;;;;10.27;5.17;;;18.40;99.90;;;;;;5033268;28;20886;-85
2023/10/13 12:15:48;;;;;;;10.13;4.90;;;18.50;99.90;;;;;;5042047;28;20274;-87
2023/10/13 12:18:16;;;;;;;7.28;4.43;;;18.60;99.90;;;;;;5039154;28;20693;-86
2023/10/13 12:20:45;;;;;;;6.77;4.93;;;18.60;99.90;;;;;;5039774;28;20236;-86
2023/10/13 12:23:17;;;;;;;9.67;4.73;;;18.70;99.90;;;;;;5041683;28;20239;-85
2023/10/13 12:26:00;;;;;;;8.27;4.40;;;18.70;99.90;;;;;;5038873;28;20238;-85
2023/10/13 12:28:26;;;;;;;11.23;5.13;;;18.80;99.90;;;;;;5032798;28;20244;-86
2023/10/13 12:30:57;;;;;;;9.63;5.30;;;18.80;99.90;;;;;;5040564;28;20220;-86
2023/10/13 12:33:25;;;;;;;8.93;4.57;;;18.80;99.90;;;;;;5040750;28;20221;-85
2023/10/13 12:36:06;;;;;;;11.57;5.03;;;18.90;99.90;;;;;;5039827;28;20757;-86
2023/10/13 12:38:51;;;;;;;10.00;4.43;;;18.80;99.90;;;;;;5034338;28;20227;-86
2023/10/13 12:49:58;;;;;;;11.57;4.30;;;18.80;99.90;;;;;;5037096;28;20242;-86
2023/10/13 12:52:26;;;;;;;11.10;4.47;;;18.90;99.90;;;;;;5024232;28;20255;-84
2023/10/13 12:55:06;;;;;;;8.83;4.40;;;18.90;99.90;;;;;;5036761;28;20231;-85
2023/10/13 12:57:33;;;;;;;10.57;5.13;;;18.90;99.90;;;;;;5032520;28;20309;-86
2023/10/13 13:00:01;;;;;;;7.67;4.80;;;18.90;99.90;;;;;;5031229;28;20235;-85
2023/10/13 13:02:29;;;;;;;11.60;4.60;;;18.90;99.90;;;;;;5044439;28;20229;-86
2023/10/13 13:05:05;;;;;;;9.37;4.60;;;18.90;99.90;;;;;;5048158;28;20660;-86
2023/10/13 13:07:43;;;;;;;10.47;4.67;;;18.90;99.90;;;;;;5041382;28;20219;-86
2023/10/13 13:10:13;;;;;;;9.80;4.83;;;19.00;99.90;;;;;;5034299;28;20948;-85
2023/10/13 13:12:40;;;;;;;9.93;4.40;;;19.00;99.90;;;;;;5039516;28;20223;-86
2023/10/13 13:15:08;;;;;;;10.20;5.10;;;19.00;99.90;;;;;;5043644;28;20311;-86
2023/10/13 13:17:38;;;;;;;8.53;4.50;;;19.00;99.90;;;;;;5038540;28;20335;-85
2023/10/13 13:20:11;;;;;;;8.77;4.17;;;19.00;99.90;;;;;;5038431;28;20220;-86
2023/10/13 13:22:38;;;;;;;9.80;4.47;;;19.10;99.90;;;;;;5042315;28;20354;-86
2023/10/13 13:25:08;;;;;;;10.18;4.75;;;19.10;99.90;;;;;;5039507;28;20224;-86
2023/10/13 13:27:36;;;;;;;13.10;5.30;;;19.20;99.90;;;;;;5042774;28;20231;-84
2023/10/13 13:30:11;;;;;;;9.00;5.10;;;19.20;99.90;;;;;;5042985;28;20695;-87
2023/10/13 13:32:45;;;;;;;9.40;5.10;;;19.20;99.90;;;;;;5043214;28;20251;-87
2023/10/13 13:35:15;;;;;;;11.53;4.93;;;19.20;99.90;;;;;;5046970;28;20254;-86
2023/10/13 13:37:44;;;;;;;11.00;4.63;;;19.20;99.90;;;;;;5050586;28;20231;-85
2023/10/13 13:40:15;;;;;;;10.15;5.43;;;19.30;99.90;;;;;;5046541;28;20224;-87
2023/10/13 13:42:42;;;;;;;14.15;6.70;;;19.30;99.90;;;;;;5039565;28;20256;-86
2023/10/13 13:45:21;;;;;;;10.48;4.95;;;19.40;99.90;;;;;;5033744;28;20749;-86
2023/10/13 13:47:53;;;;;;;7.70;4.68;;;19.50;99.90;;;;;;5041736;28;20355;-87
2023/10/13 13:50:24;;;;;;;11.23;4.72;;;19.60;99.90;;;;;;5038146;28;20261;-83
2023/10/13 13:52:52;;;;;;;11.43;6.00;;;19.70;99.90;;;;;;5036661;28;20231;-86
2023/10/13 13:55:20;;;;;;;12.03;5.00;;;19.70;99.90;;;;;;5035796;28;20220;-88
2023/10/13 13:57:50;;;;;;;13.73;5.53;;;19.80;99.90;;;;;;5031993;28;20301;-87
2023/10/13 14:00:21;;;;;;;10.95;5.20;;;19.80;99.90;;;;;;5046553;28;20955;-86
2023/10/13 14:02:49;;;;;;;11.57;4.63;;;19.80;99.90;;;;;;5043515;28;20703;-88
2023/10/13 14:05:16;;;;;;;8.45;4.63;;;19.80;99.90;;;;;;5039942;28;20220;-87
2023/10/13 14:07:48;;;;;;;11.05;4.50;;;19.80;99.90;;;;;;5035093;28;20228;-88
2023/10/13 14:10:31;;;;;;;12.27;5.20;;;19.80;99.90;;;;;;5036685;28;20230;-86
2023/10/13 14:13:06;;;;;;;9.63;5.25;;;19.80;99.90;;;;;;5039999;28;20234;-89
2023/10/13 14:15:43;;;;;;;9.18;4.60;;;19.80;99.90;;;;;;5045665;28;20639;-86
2023/10/13 14:18:14;;;;;;;10.70;5.18;;;19.70;99.90;;;;;;5037680;28;20261;-88
2023/10/13 14:20:48;;;;;;;11.90;5.63;;;19.70;99.90;;;;;;5039297;28;20570;-89
2023/10/13 14:23:15;;;;;;;8.98;5.15;;;19.70;99.90;;;;;;5036074;28;20247;-86
2023/10/13 14:25:44;;;;;;;10.77;5.23;;;19.60;99.90;;;;;;5033500;28;20226;-86
2023/10/13 14:28:16;;;;;;;11.07;5.70;;;19.60;99.90;;;;;;5056791;28;20232;-86
2023/10/13 14:30:46;;;;;;;12.85;5.30;;;19.50;99.90;;;;;;5041163;28;20219;-87
2023/10/13 14:33:15;;;;;;;9.53;5.50;;;19.40;99.90;;;;;;5025461;28;20591;-86
2023/10/13 14:35:46;;;;;;;10.02;5.45;;;19.30;99.90;;;;;;5032650;28;20306;-86
2023/10/13 14:38:13;;;;;;;13.63;5.60;;;19.30;99.90;;;;;;5028657;28;20311;-87
2023/10/13 14:40:40;;;;;;;14.17;5.43;;;19.30;99.90;;;;;;5059023;28;20224;-86
2023/10/13 14:43:08;;;;;;;9.95;5.57;;;19.20;99.90;;;;;;5033994;28;20267;-86
2023/10/13 14:45:37;;;;;;;13.87;5.77;;;19.10;99.90;;;;;;5042513;28;20357;-90
2023/10/13 14:48:05;;;;;;;12.07;5.23;;;19.10;99.90;;;;;;5042914;28;20231;-87
2023/10/13 14:50:35;;;;;;;11.63;5.63;;;19.10;99.90;;;;;;5037949;28;20231;-86
2023/10/13 14:53:02;;;;;;;14.63;6.30;;;19.00;99.90;;;;;;5018903;28;20351;-87
2023/10/13 14:55:37;;;;;;;14.68;6.30;;;19.10;99.90;;;;;;5024664;28;20314;-86
2023/10/13 14:58:07;;;;;;;13.77;8.00;;;19.10;99.90;;;;;;5037655;28;20238;-87
2023/10/13 15:00:36;;;;;;;12.27;6.33;;;19.10;99.90;;;;;;5027439;28;20266;-86
2023/10/13 15:03:06;;;;;;;10.53;5.77;;;19.10;99.90;;;;;;5033204;28;20262;-85
2023/10/13 15:05:38;;;;;;;13.13;5.70;;;19.10;99.90;;;;;;5045292;28;20219;-86
2023/10/13 15:08:06;;;;;;;11.80;5.50;;;19.10;99.90;;;;;;5042868;28;20654;-86